createdAt,value
2022-11-29T00:00:55.041Z,522.4
2022-11-29T00:01:57.213Z,522.6
2022-11-29T00:02:59.639Z,522.6
2022-11-29T00:04:01.398Z,522.5
2022-11-29T00:05:03.004Z,522.3
2022-11-29T00:06:04.610Z,522.5
2022-11-29T00:07:06.409Z,522.4
2022-11-29T00:08:08.068Z,522.7
2022-11-29T00:09:09.680Z,522.5
2022-11-29T00:10:11.335Z,522.6
2022-11-29T00:11:12.997Z,522.5
2022-11-29T00:12:14.623Z,522.4
2022-11-29T00:13:16.291Z,522.4
2022-11-29T00:14:18.131Z,522.2
2022-11-29T00:15:19.910Z,521.6
2022-11-29T00:16:21.987Z,521.9
2022-11-29T00:17:23.784Z,521.6
2022-11-29T00:18:25.710Z,521.7
2022-11-29T00:19:27.419Z,521.7
2022-11-29T00:20:29.034Z,521.6
2022-11-29T00:21:30.642Z,521.7
2022-11-29T00:22:32.273Z,521.2
2022-11-29T00:23:33.870Z,521.3
2022-11-29T00:24:35.721Z,521.5
2022-11-29T00:25:37.563Z,521.5
2022-11-29T00:26:39.273Z,521.3
2022-11-29T00:27:40.947Z,521.4
2022-11-29T00:28:42.562Z,521.6
2022-11-29T00:29:44.276Z,521.3
2022-11-29T00:30:46.229Z,521.4
2022-11-29T00:31:48.151Z,521.5
2022-11-29T00:32:49.737Z,521.5
2022-11-29T00:33:51.346Z,521.9
2022-11-29T00:34:52.958Z,521.7
2022-11-29T00:35:54.559Z,521.7
2022-11-29T00:36:56.240Z,521.6
2022-11-29T00:37:58.020Z,521.3
2022-11-29T00:38:59.631Z,521.5
2022-11-29T00:40:01.268Z,521.3
2022-11-29T00:41:02.889Z,521.5
2022-11-29T00:42:04.582Z,521.6
2022-11-29T00:43:06.258Z,521.7
2022-11-29T00:44:08.106Z,521.7
2022-11-29T00:45:09.925Z,521.9
2022-11-29T00:46:12.043Z,521.9
2022-11-29T00:47:13.679Z,521.7
2022-11-29T00:48:15.343Z,521.7
2022-11-29T00:49:17.151Z,521.8
2022-11-29T00:50:18.869Z,521.4
2022-11-29T00:51:20.515Z,521.6
2022-11-29T00:52:22.122Z,521.1
2022-11-29T00:53:23.786Z,521.1
2022-11-29T00:54:25.379Z,521.2
2022-11-29T00:55:27.108Z,521.4
2022-11-29T00:56:28.883Z,521.3
2022-11-29T00:57:33.426Z,521.4
2022-11-29T00:58:35.340Z,521.4
2022-11-29T00:59:37.288Z,521.6
2022-11-29T01:00:39.233Z,521.6
2022-11-29T01:01:41.628Z,521.7
2022-11-29T01:02:43.813Z,521.8
2022-11-29T01:03:45.556Z,521.7
2022-11-29T01:04:48.078Z,522
2022-11-29T01:05:49.993Z,521.9
2022-11-29T01:06:51.780Z,522.1
2022-11-29T01:07:53.968Z,522.2
2022-11-29T01:08:55.635Z,522.4
2022-11-29T01:09:57.282Z,522.4
2022-11-29T01:10:58.984Z,522.6
2022-11-29T01:12:00.716Z,522.9
2022-11-29T01:13:02.464Z,522.9
2022-11-29T01:14:04.088Z,522.8
2022-11-29T01:15:05.717Z,522.4
2022-11-29T01:16:07.342Z,522.7
2022-11-29T01:17:09.263Z,522.5
2022-11-29T01:18:10.896Z,522.6
2022-11-29T01:19:12.530Z,522.5
2022-11-29T01:20:14.111Z,522.4
2022-11-29T01:21:15.769Z,522.4
2022-11-29T01:22:17.397Z,522.3
2022-11-29T01:23:19.064Z,522.5
2022-11-29T01:24:20.860Z,522.8
2022-11-29T01:25:22.486Z,522.8
2022-11-29T01:26:24.120Z,522.9
2022-11-29T01:27:25.772Z,522.7
2022-11-29T01:28:27.618Z,522.4
2022-11-29T01:29:29.329Z,523.2
2022-11-29T01:30:31.403Z,522.8
2022-11-29T01:31:33.031Z,523
2022-11-29T01:32:34.951Z,523
2022-11-29T01:33:36.694Z,523.2
2022-11-29T01:34:38.650Z,523.3
2022-11-29T01:35:40.320Z,523.4
2022-11-29T01:36:42.137Z,523.6
2022-11-29T01:37:43.833Z,523.7
2022-11-29T01:38:45.640Z,523.5
2022-11-29T01:39:47.313Z,523.5
2022-11-29T01:40:48.892Z,523.7
2022-11-29T01:41:50.578Z,523.5
2022-11-29T01:42:52.223Z,523.9
2022-11-29T01:43:54.101Z,523.9
2022-11-29T01:44:56.029Z,523.8
2022-11-29T01:45:58.093Z,523.7
2022-11-29T01:46:59.785Z,524
2022-11-29T01:48:01.649Z,524.2
2022-11-29T01:49:03.329Z,524.1
2022-11-29T01:50:04.966Z,524.3
2022-11-29T01:51:06.784Z,524.4
2022-11-29T01:52:08.668Z,524.6
2022-11-29T01:53:10.338Z,524.7
2022-11-29T01:54:12.092Z,524.6
2022-11-29T01:55:14.628Z,524.7
2022-11-29T01:56:17.129Z,524.4
2022-11-29T01:57:18.904Z,524.9
2022-11-29T01:58:20.503Z,524.9
2022-11-29T01:59:22.273Z,525
2022-11-29T02:00:23.948Z,525.2
2022-11-29T02:01:26.109Z,525.2
2022-11-29T02:02:28.072Z,525.1
2022-11-29T02:03:29.698Z,525.1
2022-11-29T02:04:31.349Z,525.4
2022-11-29T02:05:32.923Z,525.4
2022-11-29T02:06:34.580Z,525.2
2022-11-29T02:07:36.504Z,525.4
2022-11-29T02:08:38.131Z,525.6
2022-11-29T02:09:39.778Z,525.7
2022-11-29T02:10:41.559Z,525.8
2022-11-29T02:11:43.337Z,525.9
2022-11-29T02:12:44.972Z,525.8
2022-11-29T02:13:46.730Z,526
2022-11-29T02:14:48.574Z,525.9
2022-11-29T02:15:50.771Z,525.7
2022-11-29T02:16:57.364Z,526
2022-11-29T02:17:59.120Z,525.6
2022-11-29T02:19:00.965Z,525.5
2022-11-29T02:20:02.623Z,525.7
2022-11-29T02:21:04.283Z,525.7
2022-11-29T02:22:05.992Z,525.6
2022-11-29T02:23:07.715Z,525.3
2022-11-29T02:24:09.441Z,525.7
2022-11-29T02:25:11.050Z,525.4
2022-11-29T02:26:12.700Z,525.8
2022-11-29T02:27:14.535Z,525.6
2022-11-29T02:28:16.222Z,525.8
2022-11-29T02:29:17.954Z,525.7
2022-11-29T02:30:19.716Z,526
2022-11-29T02:31:21.598Z,525.7
2022-11-29T02:32:23.340Z,525.9
2022-11-29T02:33:25.047Z,526.2
2022-11-29T02:34:26.710Z,526
2022-11-29T02:35:28.374Z,525.8
2022-11-29T02:36:30.010Z,525.9
2022-11-29T02:37:31.618Z,525.7
2022-11-29T02:38:33.236Z,525.8
2022-11-29T02:39:34.998Z,525.5
2022-11-29T02:40:36.699Z,525.6
2022-11-29T02:41:38.687Z,525.5
2022-11-29T02:42:40.654Z,525.7
2022-11-29T02:43:42.263Z,525.3
2022-11-29T02:44:45.280Z,525.3
2022-11-29T02:45:47.561Z,525.7
2022-11-29T02:46:49.278Z,525.4
2022-11-29T02:47:50.909Z,525
2022-11-29T02:48:52.512Z,524.9
2022-11-29T02:49:54.412Z,524.5
2022-11-29T02:50:56.061Z,524.9
2022-11-29T02:51:57.920Z,524.7
2022-11-29T02:52:59.763Z,524.9
2022-11-29T02:54:01.396Z,524.9
2022-11-29T02:55:03.015Z,524.7
2022-11-29T02:56:04.899Z,525.2
2022-11-29T02:57:06.751Z,524.9
2022-11-29T02:58:08.371Z,525.3
2022-11-29T02:59:09.958Z,524.9
2022-11-29T03:00:11.562Z,525
2022-11-29T03:01:13.687Z,525.3
2022-11-29T03:02:15.867Z,525.3
2022-11-29T03:03:17.820Z,525.9
2022-11-29T03:04:19.468Z,525.4
2022-11-29T03:05:21.100Z,525.4
2022-11-29T03:06:22.882Z,525.4
2022-11-29T03:07:25.174Z,525.4
2022-11-29T03:08:26.793Z,525.4
2022-11-29T03:09:28.544Z,525.6
2022-11-29T03:10:30.402Z,525.6
2022-11-29T03:11:32.145Z,525.4
2022-11-29T03:12:33.986Z,525.6
2022-11-29T03:13:35.607Z,525.1
2022-11-29T03:14:37.190Z,525.4
2022-11-29T03:15:39.114Z,525.3
2022-11-29T03:16:44.142Z,525
2022-11-29T03:17:45.899Z,525.2
2022-11-29T03:18:47.520Z,524.8
2022-11-29T03:19:49.229Z,524.5
2022-11-29T03:20:50.854Z,524.4
2022-11-29T03:21:52.692Z,524.7
2022-11-29T03:22:54.350Z,524.3
2022-11-29T03:23:56.182Z,524.2
2022-11-29T03:24:58.040Z,524.3
2022-11-29T03:25:59.707Z,524.4
2022-11-29T03:27:01.314Z,524.5
2022-11-29T03:28:04.050Z,524.2
2022-11-29T03:29:05.835Z,524.4
2022-11-29T03:30:07.588Z,524.1
2022-11-29T03:31:09.557Z,524.3
2022-11-29T03:32:11.249Z,524.6
2022-11-29T03:33:12.955Z,524.5
2022-11-29T03:34:14.664Z,524.3
2022-11-29T03:35:16.297Z,524
2022-11-29T03:36:18.073Z,523.9
2022-11-29T03:37:19.849Z,523.9
2022-11-29T03:38:21.564Z,523.6
2022-11-29T03:39:23.233Z,523.8
2022-11-29T03:40:24.827Z,523.5
2022-11-29T03:41:26.400Z,523.6
2022-11-29T03:42:28.108Z,523.5
2022-11-29T03:43:29.903Z,523.8
2022-11-29T03:44:31.853Z,524
2022-11-29T03:45:33.650Z,524.2
2022-11-29T03:46:35.580Z,523.8
2022-11-29T03:47:37.329Z,524.1
2022-11-29T03:48:39.077Z,523.7
2022-11-29T03:49:40.704Z,523.8
2022-11-29T03:50:42.383Z,524
2022-11-29T03:51:44.112Z,523.6
2022-11-29T03:52:45.747Z,523.8
2022-11-29T03:53:47.423Z,523.9
2022-11-29T03:54:49.217Z,524.1
2022-11-29T03:55:50.906Z,524.2
2022-11-29T03:56:52.515Z,524
2022-11-29T03:57:54.110Z,524.1
2022-11-29T03:58:55.805Z,524.3
2022-11-29T03:59:57.415Z,524.5
2022-11-29T04:00:59.018Z,524.3
2022-11-29T04:02:00.598Z,524.2
2022-11-29T04:03:02.568Z,523.9
2022-11-29T04:04:04.351Z,524
2022-11-29T04:05:06.193Z,524
2022-11-29T04:06:07.853Z,523.8
2022-11-29T04:07:09.471Z,523.8
2022-11-29T04:08:11.079Z,524.1
2022-11-29T04:09:12.687Z,524.4
2022-11-29T04:10:14.745Z,524.2
2022-11-29T04:11:16.475Z,524.2
2022-11-29T04:12:18.316Z,524.2
2022-11-29T04:13:20.027Z,523.7
2022-11-29T04:14:21.642Z,524
2022-11-29T04:15:23.562Z,523.7
2022-11-29T04:16:25.433Z,523.7
2022-11-29T04:17:27.090Z,523.8
2022-11-29T04:18:28.761Z,523.4
2022-11-29T04:19:30.385Z,523.6
2022-11-29T04:20:48.576Z,523.4
2022-11-29T04:21:50.334Z,523.1
2022-11-29T04:22:52.150Z,523
2022-11-29T04:23:53.777Z,523.1
2022-11-29T04:24:55.424Z,523.1
2022-11-29T04:25:57.024Z,522.9
2022-11-29T04:26:58.633Z,523
2022-11-29T04:28:00.305Z,522.7
2022-11-29T04:29:01.906Z,522.8
2022-11-29T04:30:03.569Z,522.6
2022-11-29T04:31:05.475Z,522.7
2022-11-29T04:32:07.210Z,522.7
2022-11-29T04:33:08.908Z,522.6
2022-11-29T04:34:10.614Z,522.7
2022-11-29T04:35:12.374Z,522.9
2022-11-29T04:36:14.050Z,522.8
2022-11-29T04:37:15.636Z,523.1
2022-11-29T04:38:17.269Z,522.9
2022-11-29T04:39:18.880Z,522.7
2022-11-29T04:40:20.735Z,523
2022-11-29T04:41:22.616Z,522.8
2022-11-29T04:42:24.245Z,522.9
2022-11-29T04:43:25.895Z,522.9
2022-11-29T04:44:27.649Z,522.8
2022-11-29T04:45:29.393Z,523
2022-11-29T04:46:31.370Z,522.7
2022-11-29T04:47:33.130Z,522.9
2022-11-29T04:48:34.765Z,523
2022-11-29T04:49:36.593Z,523
2022-11-29T04:50:41.218Z,523.6
2022-11-29T04:51:42.854Z,523.6
2022-11-29T04:52:44.521Z,523.9
2022-11-29T04:53:46.351Z,523.6
2022-11-29T04:54:48.233Z,523.5
2022-11-29T04:55:50.017Z,523.5
2022-11-29T04:56:51.900Z,523.4
2022-11-29T04:57:53.561Z,523.4
2022-11-29T04:58:55.399Z,523.4
2022-11-29T04:59:57.211Z,523.5
2022-11-29T05:00:58.816Z,523.4
2022-11-29T05:02:00.734Z,523.4
2022-11-29T05:03:02.824Z,523.5
2022-11-29T05:04:04.526Z,523.5
2022-11-29T05:05:06.239Z,523.5
2022-11-29T05:06:08.119Z,523.5
2022-11-29T05:07:09.999Z,523.5
2022-11-29T05:08:11.940Z,523.7
2022-11-29T05:09:13.760Z,523.7
2022-11-29T05:10:15.566Z,523.6
2022-11-29T05:11:27.331Z,523.6
2022-11-29T05:12:28.965Z,523.8
2022-11-29T05:13:30.574Z,523.8
2022-11-29T05:14:32.201Z,523.6
2022-11-29T05:15:33.820Z,523.9
2022-11-29T05:16:35.482Z,523.7
2022-11-29T05:17:38.079Z,523.5
2022-11-29T05:18:39.892Z,523.4
2022-11-29T05:19:41.520Z,523.4
2022-11-29T05:20:43.167Z,523.4
2022-11-29T05:21:44.798Z,523.5
2022-11-29T05:22:46.434Z,523.1
2022-11-29T05:23:48.007Z,523.1
2022-11-29T05:24:49.631Z,523.4
2022-11-29T05:25:51.287Z,522.9
2022-11-29T05:26:52.963Z,523.2
2022-11-29T05:27:54.554Z,523.3
2022-11-29T05:28:56.186Z,523.2
2022-11-29T05:29:57.778Z,523.2
2022-11-29T05:30:59.800Z,523.1
2022-11-29T05:32:01.417Z,522.6
2022-11-29T05:33:03.039Z,523.2
2022-11-29T05:34:04.754Z,523.2
2022-11-29T05:35:06.380Z,523.1
2022-11-29T05:36:08.011Z,522.7
2022-11-29T05:37:09.642Z,523
2022-11-29T05:38:11.340Z,523
2022-11-29T05:39:13.020Z,522.6
2022-11-29T05:40:14.617Z,522.4
2022-11-29T05:41:16.208Z,522.4
2022-11-29T05:42:18.000Z,522.3
2022-11-29T05:43:19.656Z,522.2
2022-11-29T05:44:21.280Z,522.4
2022-11-29T05:45:23.035Z,522.4
2022-11-29T05:46:25.019Z,522.5
2022-11-29T05:47:32.085Z,522.5
2022-11-29T05:48:33.677Z,522.5
2022-11-29T05:49:35.325Z,522.2
2022-11-29T05:50:36.924Z,522.2
2022-11-29T05:51:38.563Z,522.3
2022-11-29T05:52:40.406Z,522.2
2022-11-29T05:53:42.045Z,522.1
2022-11-29T05:54:45.112Z,522.2
2022-11-29T05:55:47.015Z,522.1
2022-11-29T05:56:48.607Z,522.1
2022-11-29T05:57:50.291Z,522.2
2022-11-29T05:58:51.899Z,522.1
2022-11-29T05:59:53.501Z,522.3
2022-11-29T06:00:55.137Z,522.8
2022-11-29T06:01:57.086Z,522.2
2022-11-29T06:02:59.453Z,522.6
2022-11-29T06:04:01.118Z,522.3
2022-11-29T06:05:02.722Z,522.6
2022-11-29T06:06:04.338Z,522.6
2022-11-29T06:07:06.031Z,522.5
2022-11-29T06:08:07.667Z,523
2022-11-29T06:09:09.318Z,522.9
2022-11-29T06:10:10.932Z,522.4
2022-11-29T06:11:12.593Z,522.8
2022-11-29T06:12:21.827Z,522.8
2022-11-29T06:13:23.439Z,522
2022-11-29T06:14:25.113Z,522.4
2022-11-29T06:15:27.003Z,522.7
2022-11-29T06:16:29.086Z,522.6
2022-11-29T06:17:39.813Z,522.8
2022-11-29T06:18:41.467Z,522.7
2022-11-29T06:19:43.049Z,522.6
2022-11-29T06:20:44.656Z,522.5
2022-11-29T06:21:46.276Z,522.9
2022-11-29T06:22:47.998Z,522.5
2022-11-29T06:23:49.779Z,522.8
2022-11-29T06:24:51.657Z,522.5
2022-11-29T06:25:53.444Z,522.6
2022-11-29T06:26:55.093Z,522.6
2022-11-29T06:27:56.763Z,522.6
2022-11-29T06:28:58.415Z,522.3
2022-11-29T06:30:00.259Z,522.4
2022-11-29T06:31:02.524Z,522.3
2022-11-29T06:32:04.244Z,522
2022-11-29T06:33:05.887Z,522.2
2022-11-29T06:34:07.564Z,522.4
2022-11-29T06:35:09.162Z,522.1
2022-11-29T06:36:10.764Z,522.3
2022-11-29T06:37:12.774Z,522.4
2022-11-29T06:38:14.431Z,522.6
2022-11-29T06:39:16.091Z,522.5
2022-11-29T06:40:17.749Z,522.7
2022-11-29T06:41:19.388Z,522.9
2022-11-29T06:42:21.051Z,522.6
2022-11-29T06:43:22.740Z,522.5
2022-11-29T06:44:24.342Z,522.4
2022-11-29T06:45:25.946Z,522.4
2022-11-29T06:46:28.179Z,522.3
2022-11-29T06:47:30.113Z,522.2
2022-11-29T06:48:31.873Z,522.3
2022-11-29T06:49:33.533Z,522.6
2022-11-29T06:50:35.301Z,522.3
2022-11-29T06:51:36.901Z,522.2
2022-11-29T06:52:38.555Z,522.4
2022-11-29T06:53:40.432Z,522.2
2022-11-29T06:54:42.707Z,522
2022-11-29T06:55:44.719Z,522
2022-11-29T06:56:46.566Z,521.7
2022-11-29T06:57:48.214Z,521.7
2022-11-29T06:58:50.461Z,521.4
2022-11-29T06:59:52.080Z,521.7
2022-11-29T07:00:54.074Z,521.6
2022-11-29T07:01:56.080Z,521.4
2022-11-29T07:02:57.808Z,521.5
2022-11-29T07:03:59.426Z,521.6
2022-11-29T07:05:01.027Z,521.4
2022-11-29T07:06:02.667Z,521.2
2022-11-29T07:07:04.334Z,521.6
2022-11-29T07:08:05.947Z,521.1
2022-11-29T07:09:07.625Z,521.4
2022-11-29T07:10:15.572Z,521.3
2022-11-29T07:11:17.425Z,521.3
2022-11-29T07:12:19.083Z,521.5
2022-11-29T07:13:20.813Z,521.2
2022-11-29T07:14:22.415Z,521.3
2022-11-29T07:15:24.116Z,521.6
2022-11-29T07:16:25.945Z,521.4
2022-11-29T07:17:27.692Z,521.2
2022-11-29T07:18:29.379Z,521.3
2022-11-29T07:19:31.006Z,521.3
2022-11-29T07:20:32.706Z,521
2022-11-29T07:21:34.447Z,520.9
2022-11-29T07:22:36.370Z,521
2022-11-29T07:23:38.070Z,520.9
2022-11-29T07:24:39.730Z,521.3
2022-11-29T07:25:41.531Z,521
2022-11-29T07:26:43.414Z,520.8
2022-11-29T07:27:45.236Z,521.1
2022-11-29T07:28:47.032Z,520.9
2022-11-29T07:29:48.728Z,520.6
2022-11-29T07:30:50.374Z,520.7
2022-11-29T07:31:52.493Z,520.4
2022-11-29T07:33:01.194Z,520.4
2022-11-29T07:34:02.925Z,520.6
2022-11-29T07:35:04.744Z,520.6
2022-11-29T07:36:06.592Z,520.5
2022-11-29T07:37:08.501Z,520.7
2022-11-29T07:38:10.395Z,520.3
2022-11-29T07:39:12.239Z,520.3
2022-11-29T07:40:14.128Z,520.2
2022-11-29T07:41:16.010Z,520.2
2022-11-29T07:42:17.786Z,519.8
2022-11-29T07:43:19.752Z,519.8
2022-11-29T07:44:21.524Z,520.2
2022-11-29T07:45:23.241Z,520.2
2022-11-29T07:46:25.303Z,520
2022-11-29T07:47:36.458Z,519.9
2022-11-29T07:48:38.281Z,519.9
2022-11-29T07:49:40.063Z,520.1
2022-11-29T07:50:41.761Z,520.3
2022-11-29T07:51:43.572Z,520.2
2022-11-29T07:52:45.305Z,520
2022-11-29T07:53:46.918Z,520.2
2022-11-29T07:54:48.998Z,520
2022-11-29T07:55:50.973Z,520.3
2022-11-29T07:56:52.801Z,520.1
2022-11-29T07:57:54.658Z,520.4
2022-11-29T07:58:56.815Z,520.8
2022-11-29T07:59:58.703Z,520.4
2022-11-29T08:01:00.552Z,520.8
2022-11-29T08:02:03.252Z,520.1
2022-11-29T08:03:06.337Z,520.2
2022-11-29T08:04:07.947Z,520.5
2022-11-29T08:05:09.668Z,520
2022-11-29T08:06:11.261Z,520.1
2022-11-29T08:07:13.115Z,520
2022-11-29T08:08:14.983Z,519.6
2022-11-29T08:09:16.638Z,520
2022-11-29T08:10:18.230Z,519.6
2022-11-29T08:11:19.969Z,519.4
2022-11-29T08:12:21.883Z,519.6
2022-11-29T08:13:23.735Z,519.9
2022-11-29T08:14:25.463Z,519.6
2022-11-29T08:15:27.267Z,519.5
2022-11-29T08:16:29.205Z,519.7
2022-11-29T08:17:30.973Z,519.6
2022-11-29T08:18:32.684Z,519.9
2022-11-29T08:19:34.527Z,520.1
2022-11-29T08:20:36.373Z,519.8
2022-11-29T08:21:38.059Z,519.8
2022-11-29T08:22:39.876Z,520
2022-11-29T08:23:41.657Z,520.2
2022-11-29T08:24:45.008Z,520
2022-11-29T08:25:46.852Z,519.8
2022-11-29T08:26:48.777Z,519.8
2022-11-29T08:27:50.544Z,519.8
2022-11-29T08:28:52.183Z,519.7
2022-11-29T08:29:53.893Z,519.9
2022-11-29T08:30:55.518Z,520
2022-11-29T08:31:57.444Z,520.1
2022-11-29T08:32:59.117Z,520.3
2022-11-29T08:34:00.766Z,520.5
2022-11-29T08:35:02.487Z,520.4
2022-11-29T08:36:04.398Z,520.7
2022-11-29T08:37:06.389Z,520.4
2022-11-29T08:38:08.243Z,520
2022-11-29T08:39:10.503Z,520
2022-11-29T08:40:12.345Z,520
2022-11-29T08:41:14.201Z,520.1
2022-11-29T08:42:16.066Z,520.1
2022-11-29T08:43:17.900Z,520.3
2022-11-29T08:44:19.750Z,520
2022-11-29T08:45:21.672Z,520.1
2022-11-29T08:46:23.784Z,520.1
2022-11-29T08:47:25.401Z,520.2
2022-11-29T08:48:27.127Z,520
2022-11-29T08:49:28.749Z,520
2022-11-29T08:50:30.378Z,520
2022-11-29T08:51:32.188Z,520
2022-11-29T08:52:34.028Z,519.6
2022-11-29T08:53:35.882Z,519.8
2022-11-29T08:54:37.580Z,519.6
2022-11-29T08:55:39.166Z,519.5
2022-11-29T08:57:41.491Z,519.7
2022-11-29T08:58:43.241Z,519.8
2022-11-29T08:59:44.981Z,519.5
2022-11-29T09:00:47.368Z,519.9
2022-11-29T09:01:49.654Z,519.9
2022-11-29T09:02:51.429Z,520
2022-11-29T09:03:53.065Z,520.3
2022-11-29T09:04:54.830Z,520.3
2022-11-29T09:05:56.653Z,520.4
2022-11-29T09:06:58.574Z,520.5
2022-11-29T09:08:00.822Z,520.5
2022-11-29T09:09:02.573Z,520.6
2022-11-29T09:10:04.410Z,520.7
2022-11-29T09:11:06.128Z,521
2022-11-29T09:12:07.847Z,520.7
2022-11-29T09:13:09.705Z,521
2022-11-29T09:14:11.505Z,521.1
2022-11-29T09:15:13.242Z,521.1
2022-11-29T09:16:15.447Z,521.1
2022-11-29T09:17:17.244Z,521.2
2022-11-29T09:18:18.817Z,521
2022-11-29T09:19:20.426Z,521.2
2022-11-29T09:20:22.464Z,520.8
2022-11-29T09:21:24.196Z,521
2022-11-29T09:22:25.774Z,521.1
2022-11-29T09:23:27.356Z,521.1
2022-11-29T09:24:28.963Z,521.1
2022-11-29T09:25:30.587Z,521.3
2022-11-29T09:26:32.275Z,521.8
2022-11-29T09:27:34.070Z,522.1
2022-11-29T09:28:35.837Z,521.7
2022-11-29T09:29:37.578Z,521.8
2022-11-29T09:30:39.213Z,522
2022-11-29T09:31:41.291Z,522.1
2022-11-29T09:32:43.208Z,522
2022-11-29T09:33:44.909Z,521.9
2022-11-29T09:34:47.934Z,522.4
2022-11-29T09:35:49.971Z,521.9
2022-11-29T09:36:51.855Z,521.8
2022-11-29T09:37:53.640Z,522.3
2022-11-29T09:38:55.607Z,522.5
2022-11-29T09:39:57.434Z,522.9
2022-11-29T09:40:59.035Z,523.1
2022-11-29T09:42:00.671Z,522.7
2022-11-29T09:43:02.375Z,522.9
2022-11-29T09:44:04.167Z,523
2022-11-29T09:45:05.834Z,523.2
2022-11-29T09:46:07.671Z,523.5
2022-11-29T09:47:09.325Z,523.3
2022-11-29T09:48:10.935Z,523.7
2022-11-29T09:49:12.615Z,523.8
2022-11-29T09:50:14.218Z,524
2022-11-29T09:51:15.833Z,524
2022-11-29T09:52:17.447Z,524
2022-11-29T09:53:19.153Z,524.3
2022-11-29T09:54:20.830Z,524.6
2022-11-29T09:55:22.538Z,524.6
2022-11-29T09:56:24.150Z,524.5
2022-11-29T09:57:25.899Z,524.7
2022-11-29T09:58:27.594Z,524.5
2022-11-29T09:59:29.387Z,524.7
2022-11-29T10:00:31.178Z,524.4
2022-11-29T10:01:33.155Z,524.9
2022-11-29T10:02:34.976Z,524.8
2022-11-29T10:03:36.596Z,525
2022-11-29T10:04:38.290Z,524.6
2022-11-29T10:05:39.902Z,524.5
2022-11-29T10:06:41.518Z,524.9
2022-11-29T10:07:43.508Z,525.2
2022-11-29T10:08:45.306Z,525.1
2022-11-29T10:09:47.266Z,525.2
2022-11-29T10:10:48.994Z,525.1
2022-11-29T10:11:50.741Z,525.3
2022-11-29T10:12:52.361Z,525.4
2022-11-29T10:13:54.012Z,525.8
2022-11-29T10:14:55.650Z,525.8
2022-11-29T10:15:57.268Z,525.9
2022-11-29T10:16:59.262Z,525.7
2022-11-29T10:18:00.894Z,525.9
2022-11-29T10:19:02.472Z,526
2022-11-29T10:20:04.098Z,526.4
2022-11-29T10:21:05.722Z,526.2
2022-11-29T10:22:07.505Z,526.2
2022-11-29T10:23:09.216Z,526.2
2022-11-29T10:24:10.831Z,526.3
2022-11-29T10:25:12.643Z,526.2
2022-11-29T10:26:14.400Z,526.4
2022-11-29T10:27:16.149Z,526.5
2022-11-29T10:28:17.777Z,526.3
2022-11-29T10:29:19.436Z,526.4
2022-11-29T10:30:21.206Z,526.6
2022-11-29T10:31:23.096Z,526.1
2022-11-29T10:32:24.747Z,526.2
2022-11-29T10:33:26.384Z,526.5
2022-11-29T10:34:28.104Z,526.5
2022-11-29T10:35:29.845Z,526.6
2022-11-29T10:36:31.736Z,526.5
2022-11-29T10:37:33.358Z,526.6
2022-11-29T10:38:35.003Z,526.5
2022-11-29T10:39:36.675Z,526.5
2022-11-29T10:40:40.975Z,526.8
2022-11-29T10:41:42.701Z,526.6
2022-11-29T10:42:44.376Z,526.8
2022-11-29T10:43:46.268Z,526.9
2022-11-29T10:44:48.350Z,526.8
2022-11-29T10:45:51.457Z,527.1
2022-11-29T10:46:53.116Z,526.9
2022-11-29T10:47:54.730Z,526.7
2022-11-29T10:48:56.398Z,526.6
2022-11-29T10:49:58.012Z,526.8
2022-11-29T10:50:59.822Z,526.7
2022-11-29T10:52:01.441Z,526.8
2022-11-29T10:53:03.060Z,526.8
2022-11-29T10:54:04.695Z,526.9
2022-11-29T10:55:06.462Z,527.2
2022-11-29T10:56:08.143Z,527.3
2022-11-29T10:57:09.743Z,527.1
2022-11-29T10:58:11.444Z,527
2022-11-29T10:59:13.610Z,527.2
2022-11-29T11:00:15.512Z,527.4
2022-11-29T11:01:17.682Z,527.4
2022-11-29T11:02:19.418Z,527.5
2022-11-29T11:03:21.409Z,527.7
2022-11-29T11:04:23.273Z,527.7
2022-11-29T11:05:25.096Z,527.7
2022-11-29T11:06:26.783Z,528.2
2022-11-29T11:07:28.866Z,528
2022-11-29T11:08:30.660Z,528.3
2022-11-29T11:09:32.706Z,528.1
2022-11-29T11:10:34.329Z,528
2022-11-29T11:11:36.216Z,528.3
2022-11-29T11:12:38.152Z,528.1
2022-11-29T11:13:39.899Z,528.4
2022-11-29T11:14:41.487Z,528.3
2022-11-29T11:15:43.305Z,528.1
2022-11-29T11:16:45.419Z,528
2022-11-29T11:17:47.310Z,528.1
2022-11-29T11:18:49.158Z,527.8
2022-11-29T11:19:50.936Z,527.8
2022-11-29T11:20:52.623Z,527.8
2022-11-29T11:21:54.324Z,527.9
2022-11-29T11:22:56.096Z,528
2022-11-29T11:23:57.904Z,527.8
2022-11-29T11:24:59.679Z,527.9
2022-11-29T11:26:01.406Z,528
2022-11-29T11:27:03.247Z,527.6
2022-11-29T11:28:05.050Z,527.6
2022-11-29T11:29:06.923Z,527.5
2022-11-29T11:30:08.903Z,527.4
2022-11-29T11:31:10.890Z,527.2
2022-11-29T11:32:12.812Z,527.1
2022-11-29T11:33:14.680Z,527.4
2022-11-29T11:34:16.458Z,527
2022-11-29T11:35:19.267Z,527.3
2022-11-29T11:36:21.127Z,526.7
2022-11-29T11:37:22.900Z,526.7
2022-11-29T11:38:24.733Z,526.6
2022-11-29T11:39:26.767Z,526.9
2022-11-29T11:40:29.256Z,526.8
2022-11-29T11:41:31.393Z,526.7
2022-11-29T11:42:33.243Z,527
2022-11-29T11:43:34.953Z,527
2022-11-29T11:44:52.486Z,526.7
2022-11-29T11:45:54.600Z,527
2022-11-29T11:46:56.517Z,526.8
2022-11-29T11:47:58.286Z,526.8
2022-11-29T11:48:59.953Z,527
2022-11-29T11:50:01.870Z,527.3
2022-11-29T11:51:03.816Z,527.3
2022-11-29T11:52:05.637Z,527.5
2022-11-29T11:53:07.405Z,527
2022-11-29T11:54:09.222Z,527.3
2022-11-29T11:55:11.056Z,527.3
2022-11-29T11:56:12.864Z,527.7
2022-11-29T11:57:14.603Z,527.4
2022-11-29T11:58:16.560Z,527.4
2022-11-29T11:59:18.405Z,527.1
2022-11-29T12:01:06.624Z,527.3
2022-11-29T12:02:08.721Z,527.5
2022-11-29T12:03:11.259Z,527.1
2022-11-29T12:04:13.207Z,527.3
2022-11-29T12:05:14.885Z,526.9
2022-11-29T12:06:16.567Z,527
2022-11-29T12:07:18.585Z,527
2022-11-29T12:08:20.692Z,527.3
2022-11-29T12:09:22.491Z,527.3
2022-11-29T12:10:24.223Z,527
2022-11-29T12:11:26.069Z,527.3
2022-11-29T12:12:27.913Z,527.6
2022-11-29T12:13:29.633Z,527.4
2022-11-29T12:14:31.512Z,527.9
2022-11-29T12:15:33.802Z,527.8
2022-11-29T12:16:35.520Z,528
2022-11-29T12:17:37.288Z,528.1
2022-11-29T12:18:39.145Z,528
2022-11-29T12:19:40.967Z,528.4
2022-11-29T12:20:42.740Z,528.2
2022-11-29T12:21:44.453Z,528.2
2022-11-29T12:22:49.289Z,528.3
2022-11-29T12:23:51.022Z,528.2
2022-11-29T12:24:53.028Z,528.5
2022-11-29T12:25:55.225Z,528.3
2022-11-29T12:27:00.327Z,528.3
2022-11-29T12:28:02.433Z,528.3
2022-11-29T12:29:04.077Z,528.4
2022-11-29T12:30:05.916Z,528.3
2022-11-29T12:31:07.914Z,528
2022-11-29T12:32:09.615Z,528.1
2022-11-29T12:33:11.568Z,528.2
2022-11-29T12:34:13.359Z,528.2
2022-11-29T12:35:19.789Z,528.2
2022-11-29T12:38:02.105Z,528.7
2022-11-29T12:39:03.912Z,528.1
2022-11-29T12:40:05.785Z,528.4
2022-11-29T12:41:07.528Z,528.1
2022-11-29T12:42:09.156Z,528.2
2022-11-29T12:43:10.930Z,528
2022-11-29T12:44:12.686Z,528.1
2022-11-29T12:45:14.474Z,528.1
2022-11-29T12:46:16.422Z,528.1
2022-11-29T12:47:52.658Z,528
2022-11-29T12:48:54.500Z,528.1
2022-11-29T12:49:56.380Z,527.9
2022-11-29T12:50:58.274Z,527.8
2022-11-29T12:52:00.129Z,527.8
2022-11-29T12:53:01.984Z,527.9
2022-11-29T12:54:03.771Z,528
2022-11-29T12:55:05.589Z,528.3
2022-11-29T12:56:07.426Z,528.4
2022-11-29T12:57:09.068Z,528.2
2022-11-29T12:58:10.744Z,528.3
2022-11-29T12:59:12.670Z,528.2
2022-11-29T13:00:14.524Z,527.9
2022-11-29T13:01:16.732Z,527.9
2022-11-29T13:02:18.554Z,528
2022-11-29T13:03:20.269Z,527.6
2022-11-29T13:04:22.029Z,527.7
2022-11-29T13:05:23.899Z,527.9
2022-11-29T13:06:25.612Z,527.6
2022-11-29T13:07:30.298Z,527.8
2022-11-29T13:08:32.189Z,527.5
2022-11-29T13:09:33.887Z,527.4
2022-11-29T13:10:35.678Z,527
2022-11-29T13:11:37.401Z,527.2
2022-11-29T13:12:39.285Z,527.3
2022-11-29T13:13:41.207Z,527
2022-11-29T13:14:44.924Z,527.4
2022-11-29T13:15:46.821Z,527.3
2022-11-29T13:16:48.985Z,527.5
2022-11-29T13:17:50.720Z,527.2
2022-11-29T13:18:52.529Z,527.2
2022-11-29T13:19:54.293Z,527.3
2022-11-29T13:20:56.147Z,527.3
2022-11-29T13:21:57.980Z,527.3
2022-11-29T13:22:59.836Z,527
2022-11-29T13:24:10.721Z,526.9
2022-11-29T13:25:12.442Z,526.9
2022-11-29T13:26:14.297Z,526.6
2022-11-29T13:27:16.043Z,526.5
2022-11-29T13:28:17.775Z,526.6